Time;durP1;ratioP1;P1;durP2;ratioP2;P2;SDS_P1;SDS_P2;PMS_P1;PMS_P2;Temp;Humidity;BMP_temperature;BMP_pressure;BME280_temperature;BME280_humidity;BME280_pressure;Samples;Min_cycle;Max_cycle;Signal;HPM_P1;HPM_P2
2021/04/07 00:00:21;;;;;;;10.73;4.13;;;1.50;99.90;;;;;;5087480;28;20028;-47
2021/04/07 00:02:47;;;;;;;13.50;5.38;;;1.60;99.90;;;;;;5088100;28;20084;-45
2021/04/07 00:05:16;;;;;;;10.90;4.75;;;1.50;99.90;;;;;;5087202;28;20032;-47
2021/04/07 00:07:45;;;;;;;13.02;5.93;;;1.40;99.90;;;;;;5067488;28;20028;-45
2021/04/07 00:10:13;;;;;;;8.40;4.70;;;1.40;99.90;;;;;;5067088;28;20549;-45
2021/04/07 00:12:40;;;;;;;13.43;5.20;;;1.40;99.90;;;;;;5065797;28;20078;-46
2021/04/07 00:15:27;;;;;;;11.07;4.43;;;1.40;99.90;;;;;;5067110;28;20044;-46
2021/04/07 00:17:54;;;;;;;8.45;4.55;;;1.50;99.90;;;;;;5067692;28;20036;-46
2021/04/07 00:20:24;;;;;;;10.68;5.30;;;1.40;99.90;;;;;;5067361;28;20647;-45
2021/04/07 00:22:50;;;;;;;9.77;5.10;;;1.30;99.90;;;;;;5070461;28;20034;-46
2021/04/07 00:25:17;;;;;;;8.38;4.28;;;1.40;99.90;;;;;;5087333;28;20032;-48
2021/04/07 00:27:44;;;;;;;13.48;5.00;;;1.40;99.90;;;;;;5068600;28;20024;-45
2021/04/07 00:30:11;;;;;;;9.88;5.03;;;1.40;99.90;;;;;;5087190;28;20035;-46
2021/04/07 00:32:38;;;;;;;15.05;4.63;;;1.40;99.90;;;;;;5086744;28;20036;-48
2021/04/07 00:35:04;;;;;;;16.02;5.53;;;1.40;99.90;;;;;;5086878;28;20036;-45
2021/04/07 00:37:30;;;;;;;9.63;4.93;;;1.40;99.90;;;;;;5086673;28;20474;-49
2021/04/07 00:39:56;;;;;;;9.95;4.75;;;1.40;99.90;;;;;;5087078;28;20077;-45
2021/04/07 00:42:22;;;;;;;10.43;4.40;;;1.30;99.90;;;;;;5068554;28;20020;-47
2021/04/07 00:44:48;;;;;;;15.55;4.95;;;1.30;99.90;;;;;;5068188;28;20440;-47
2021/04/07 00:47:17;;;;;;;13.05;5.20;;;1.30;99.90;;;;;;5068054;28;20031;-45
2021/04/07 00:49:42;;;;;;;11.32;4.60;;;1.30;99.90;;;;;;5068860;28;20020;-46
2021/04/07 00:52:08;;;;;;;8.48;4.25;;;1.30;99.90;;;;;;5086954;28;20538;-46
2021/04/07 00:54:35;;;;;;;14.25;4.45;;;1.40;99.90;;;;;;5086016;28;20043;-46
2021/04/07 00:57:01;;;;;;;14.60;5.20;;;1.40;99.90;;;;;;5086949;28;20016;-46
2021/04/07 00:59:27;;;;;;;14.95;5.25;;;1.30;99.90;;;;;;5087401;28;20059;-46
2021/04/07 01:01:53;;;;;;;14.20;5.03;;;1.30;99.90;;;;;;5087186;28;20024;-45
2021/04/07 01:04:20;;;;;;;11.23;5.80;;;1.40;99.90;;;;;;5086544;28;20031;-45
2021/04/07 01:06:47;;;;;;;14.07;4.70;;;1.40;99.90;;;;;;5086287;28;20024;-49
2021/04/07 01:09:12;;;;;;;10.48;4.63;;;1.40;99.90;;;;;;5066281;28;20087;-46
2021/04/07 01:11:38;;;;;;;12.50;6.43;;;1.40;99.90;;;;;;5066864;28;20024;-45
2021/04/07 01:14:05;;;;;;;14.85;5.22;;;1.40;99.90;;;;;;5061453;28;20036;-46
2021/04/07 01:16:32;;;;;;;16.05;5.53;;;1.40;99.90;;;;;;5068639;28;20039;-44
2021/04/07 01:18:57;;;;;;;11.07;4.63;;;1.30;99.90;;;;;;5083928;28;20027;-44
2021/04/07 01:21:23;;;;;;;10.05;5.18;;;1.30;99.90;;;;;;5064794;28;20046;-44
2021/04/07 01:23:48;;;;;;;11.38;4.50;;;1.20;99.90;;;;;;5085806;28;20464;-45
2021/04/07 01:26:16;;;;;;;15.43;4.65;;;1.20;99.90;;;;;;5085976;28;20028;-46
2021/04/07 01:28:42;;;;;;;13.60;5.10;;;1.20;99.90;;;;;;5086527;28;20067;-46
2021/04/07 01:31:09;;;;;;;14.60;4.38;;;1.20;99.90;;;;;;5068412;28;20020;-46
2021/04/07 01:33:35;;;;;;;18.60;5.03;;;1.20;99.90;;;;;;5076434;28;20276;-46
2021/04/07 01:36:00;;;;;;;18.45;4.82;;;1.20;99.90;;;;;;5086406;28;20032;-47
2021/04/07 01:38:26;;;;;;;10.73;5.20;;;1.30;99.90;;;;;;5086297;28;20435;-46
2021/04/07 01:40:53;;;;;;;15.45;5.90;;;1.30;99.90;;;;;;5086797;28;20028;-46
2021/04/07 01:43:20;;;;;;;10.55;5.15;;;1.30;99.90;;;;;;5085220;28;20024;-45
2021/04/07 01:45:48;;;;;;;13.65;5.85;;;1.30;99.90;;;;;;5089880;28;20039;-46
2021/04/07 01:48:14;;;;;;;11.85;4.45;;;1.30;99.90;;;;;;5072278;28;20028;-48
2021/04/07 01:50:41;;;;;;;15.63;5.25;;;1.40;99.90;;;;;;5091012;28;20031;-45
2021/04/07 01:53:09;;;;;;;11.13;4.72;;;1.40;99.90;;;;;;5088897;28;20016;-46
2021/04/07 01:55:34;;;;;;;15.95;5.35;;;1.30;99.90;;;;;;5090798;28;20112;-46
2021/04/07 01:58:00;;;;;;;16.25;5.63;;;1.40;99.90;;;;;;5090062;28;20139;-45
2021/04/07 02:00:26;;;;;;;22.83;6.45;;;1.40;99.90;;;;;;5090433;28;20028;-45
2021/04/07 02:02:51;;;;;;;16.98;5.28;;;1.40;99.90;;;;;;5089185;28;20765;-45
2021/04/07 02:05:17;;;;;;;11.82;4.95;;;1.40;99.90;;;;;;5090536;28;20064;-45
2021/04/07 02:07:42;;;;;;;21.92;5.30;;;1.40;99.90;;;;;;5071923;28;20380;-45
2021/04/07 02:10:10;;;;;;;17.20;4.85;;;1.30;99.90;;;;;;5089337;28;20028;-44
2021/04/07 02:12:35;;;;;;;15.30;5.00;;;1.30;99.90;;;;;;5090573;28;20127;-45
2021/04/07 02:15:15;;;;;;;15.45;4.97;;;1.30;99.90;;;;;;5070322;28;20274;-48
2021/04/07 02:17:41;;;;;;;12.50;4.45;;;1.30;99.90;;;;;;5090123;28;20111;-45
2021/04/07 02:20:08;;;;;;;12.80;4.68;;;1.30;99.90;;;;;;5089260;28;20111;-45
2021/04/07 02:22:34;;;;;;;14.45;5.25;;;1.40;99.90;;;;;;5090057;28;20052;-45
2021/04/07 02:25:00;;;;;;;9.73;3.72;;;1.40;99.90;;;;;;5089111;28;20672;-45
2021/04/07 02:27:26;;;;;;;15.75;4.15;;;1.40;99.90;;;;;;5089608;28;20032;-45
2021/04/07 02:29:55;;;;;;;10.90;4.00;;;1.30;99.90;;;;;;5089980;28;20024;-46
2021/04/07 02:32:21;;;;;;;10.48;4.07;;;1.30;99.90;;;;;;5071428;28;20055;-45
2021/04/07 02:34:47;;;;;;;14.32;5.15;;;1.30;99.90;;;;;;5088226;28;20125;-44
2021/04/07 02:37:14;;;;;;;13.00;4.25;;;1.20;99.90;;;;;;5089553;28;20094;-45
2021/04/07 02:39:41;;;;;;;14.88;5.13;;;1.10;99.90;;;;;;5089823;28;20032;-45
2021/04/07 02:42:07;;;;;;;10.20;5.32;;;1.10;99.90;;;;;;5089198;28;20046;-45
2021/04/07 02:44:33;;;;;;;12.60;4.78;;;1.10;99.90;;;;;;5088755;28;20031;-46
2021/04/07 02:46:59;;;;;;;14.20;4.68;;;1.00;99.90;;;;;;5089646;28;20032;-45
2021/04/07 02:49:24;;;;;;;10.85;4.40;;;1.00;99.90;;;;;;5088966;28;20042;-45
2021/04/07 02:51:51;;;;;;;15.55;4.30;;;0.90;99.90;;;;;;5088811;28;20036;-49
2021/04/07 02:54:17;;;;;;;10.93;3.80;;;0.90;99.90;;;;;;5087978;28;20023;-45
2021/04/07 02:56:42;;;;;;;13.95;4.70;;;0.90;99.90;;;;;;5088514;28;20290;-45
2021/04/07 02:59:08;;;;;;;14.32;5.35;;;0.90;99.90;;;;;;5088361;28;20461;-45
2021/04/07 03:01:35;;;;;;;18.55;4.55;;;0.90;99.90;;;;;;5090011;28;20035;-45
2021/04/07 03:04:01;;;;;;;16.85;6.03;;;0.90;99.90;;;;;;5069590;28;20032;-46
2021/04/07 03:06:27;;;;;;;22.10;4.30;;;0.90;99.90;;;;;;5088397;28;20516;-44
2021/04/07 03:08:52;;;;;;;16.50;4.90;;;0.80;99.90;;;;;;5088838;28;20024;-45
2021/04/07 03:11:18;;;;;;;15.70;4.63;;;0.80;99.90;;;;;;5088068;28;20024;-45
2021/04/07 03:13:44;;;;;;;19.38;5.28;;;0.80;99.90;;;;;;5087895;28;20027;-48
2021/04/07 03:16:10;;;;;;;16.60;4.80;;;0.70;99.90;;;;;;5088125;28;20020;-45
2021/04/07 03:18:35;;;;;;;14.50;5.63;;;0.70;99.90;;;;;;5088549;28;20024;-46
2021/04/07 03:21:01;;;;;;;18.15;5.40;;;0.70;99.90;;;;;;5086904;28;20404;-45
2021/04/07 03:23:27;;;;;;;17.73;5.28;;;0.70;99.90;;;;;;5090099;28;20021;-45
2021/04/07 03:25:53;;;;;;;14.27;5.10;;;0.70;99.90;;;;;;5087968;28;20112;-46
2021/04/07 03:28:18;;;;;;;16.20;5.93;;;0.70;99.90;;;;;;5088331;28;20107;-45
2021/04/07 03:30:51;;;;;;;20.25;8.93;;;0.60;99.90;;;;;;5087426;28;20078;-45
2021/04/07 03:33:23;;;;;;;23.42;7.00;;;0.60;99.90;;;;;;5079918;28;20028;-45
2021/04/07 03:35:51;;;;;;;17.95;6.15;;;0.60;99.90;;;;;;5070496;28;20020;-46
2021/04/07 03:38:16;;;;;;;16.70;5.53;;;0.60;99.90;;;;;;5089657;28;20023;-45
2021/04/07 03:40:42;;;;;;;17.45;6.25;;;0.60;99.90;;;;;;5070502;28;20028;-44
2021/04/07 03:43:10;;;;;;;18.50;7.60;;;0.50;99.90;;;;;;5089606;28;20031;-46
2021/04/07 03:45:35;;;;;;;19.38;8.40;;;0.50;99.90;;;;;;5070410;28;20561;-45
2021/04/07 03:48:01;;;;;;;19.45;7.85;;;0.50;99.90;;;;;;5082707;28;20028;-44
2021/04/07 03:50:28;;;;;;;24.00;8.65;;;0.60;99.90;;;;;;5084395;28;20031;-45
2021/04/07 03:52:54;;;;;;;24.00;7.85;;;0.60;99.90;;;;;;5083391;28;20455;-45
2021/04/07 03:55:19;;;;;;;20.35;8.90;;;0.60;99.90;;;;;;5068990;28;20081;-45
2021/04/07 03:57:45;;;;;;;24.92;8.32;;;0.60;99.90;;;;;;5088216;28;20047;-45
2021/04/07 04:00:12;;;;;;;20.98;7.50;;;0.60;99.90;;;;;;5067300;28;20040;-45
2021/04/07 04:02:37;;;;;;;20.40;7.45;;;0.70;99.90;;;;;;5075934;28;20055;-45
2021/04/07 04:05:04;;;;;;;28.38;8.75;;;0.70;99.90;;;;;;5086631;28;20069;-45
2021/04/07 04:07:30;;;;;;;27.05;7.25;;;0.70;99.90;;;;;;5087281;28;20028;-45
2021/04/07 04:09:55;;;;;;;25.48;7.57;;;0.70;99.90;;;;;;5087706;28;20043;-45
2021/04/07 04:12:21;;;;;;;27.38;7.18;;;0.70;99.90;;;;;;5087266;28;20192;-46
2021/04/07 04:14:46;;;;;;;20.08;7.38;;;0.70;99.90;;;;;;5087618;28;20028;-46
2021/04/07 04:17:12;;;;;;;22.88;7.50;;;0.70;99.90;;;;;;5087302;28;20087;-47
2021/04/07 04:19:37;;;;;;;22.05;5.93;;;0.70;99.90;;;;;;5087692;28;20065;-48
2021/04/07 04:22:04;;;;;;;19.25;7.30;;;0.70;99.90;;;;;;5087905;28;20111;-45
2021/04/07 04:24:30;;;;;;;19.02;6.47;;;0.70;99.90;;;;;;5086513;28;20458;-46
2021/04/07 04:26:55;;;;;;;19.95;7.85;;;0.70;99.90;;;;;;5087669;28;20066;-45
2021/04/07 04:29:21;;;;;;;22.95;6.72;;;0.70;99.90;;;;;;5086769;28;20055;-47
2021/04/07 04:31:46;;;;;;;25.17;7.03;;;0.70;99.90;;;;;;5087319;28;20028;-45
2021/04/07 04:34:12;;;;;;;23.20;7.60;;;0.70;99.90;;;;;;5078456;28;20052;-46
2021/04/07 04:36:37;;;;;;;21.77;7.22;;;0.70;99.90;;;;;;5087722;28;20252;-45
2021/04/07 04:39:03;;;;;;;20.67;6.63;;;0.60;99.90;;;;;;5086599;28;20020;-45
2021/04/07 04:41:30;;;;;;;23.17;7.43;;;0.60;99.90;;;;;;5085257;28;20024;-47
2021/04/07 04:43:56;;;;;;;20.17;5.90;;;0.60;99.90;;;;;;5085626;28;20032;-45
2021/04/07 04:46:21;;;;;;;26.42;7.05;;;0.60;99.90;;;;;;5086473;28;20085;-45
2021/04/07 04:48:47;;;;;;;24.52;6.13;;;0.60;99.90;;;;;;5086679;28;20470;-45
2021/04/07 04:51:12;;;;;;;29.55;6.50;;;0.60;99.90;;;;;;5084887;28;20089;-45
2021/04/07 04:53:38;;;;;;;28.25;7.57;;;0.60;99.90;;;;;;5086559;28;20058;-46
2021/04/07 04:56:04;;;;;;;22.58;5.82;;;0.60;99.90;;;;;;5086418;28;20497;-45
2021/04/07 04:58:31;;;;;;;26.73;5.78;;;0.60;99.90;;;;;;5086655;28;20040;-45
2021/04/07 05:00:58;;;;;;;21.83;7.82;;;0.70;99.90;;;;;;5077589;28;20104;-47
2021/04/07 05:03:24;;;;;;;22.45;7.45;;;0.70;99.90;;;;;;5085190;28;20036;-47
2021/04/07 05:05:50;;;;;;;23.90;5.53;;;0.80;99.90;;;;;;5085403;28;20078;-45
2021/04/07 05:08:16;;;;;;;26.25;7.10;;;0.80;99.90;;;;;;5076690;28;20023;-46
2021/04/07 05:10:41;;;;;;;16.75;5.13;;;0.80;99.90;;;;;;5084858;28;20107;-47
2021/04/07 05:13:08;;;;;;;15.95;5.25;;;0.70;99.90;;;;;;5069622;28;20484;-46
2021/04/07 05:15:33;;;;;;;14.30;4.85;;;0.70;99.90;;;;;;5089076;28;20040;-46
2021/04/07 05:18:00;;;;;;;24.77;6.85;;;0.70;99.90;;;;;;5081231;28;20168;-45
2021/04/07 05:20:25;;;;;;;16.98;5.10;;;0.70;99.90;;;;;;5086683;28;20053;-47
2021/04/07 05:22:51;;;;;;;27.63;6.32;;;0.70;99.90;;;;;;5085782;28;20048;-47
2021/04/07 05:25:16;;;;;;;20.98;5.20;;;0.70;99.90;;;;;;5085296;28;20103;-46
2021/04/07 05:27:42;;;;;;;18.45;4.75;;;0.70;99.90;;;;;;5086849;28;20517;-46
2021/04/07 05:30:08;;;;;;;17.05;5.22;;;0.70;99.90;;;;;;5086250;28;20035;-46
2021/04/07 05:32:34;;;;;;;21.15;5.65;;;0.80;99.90;;;;;;5086568;28;20037;-46
2021/04/07 05:35:00;;;;;;;13.30;4.82;;;0.80;99.90;;;;;;5086536;28;20093;-47
2021/04/07 05:37:25;;;;;;;13.68;4.65;;;0.80;99.90;;;;;;5077527;28;20046;-47
2021/04/07 05:39:51;;;;;;;20.75;5.88;;;0.80;99.90;;;;;;5086380;28;20016;-46
2021/04/07 05:42:16;;;;;;;21.52;5.03;;;0.80;99.90;;;;;;5085731;28;20036;-44
2021/04/07 05:44:42;;;;;;;14.63;5.38;;;0.80;99.90;;;;;;5067320;28;20069;-46
2021/04/07 05:47:07;;;;;;;20.42;5.72;;;0.80;99.90;;;;;;5085870;28;20496;-46
2021/04/07 05:49:33;;;;;;;14.70;5.22;;;1.00;99.90;;;;;;5085985;28;20054;-46
2021/04/07 05:51:58;;;;;;;14.18;5.13;;;1.10;99.90;;;;;;5088180;28;20031;-46
2021/04/07 05:54:24;;;;;;;16.98;5.07;;;1.10;99.90;;;;;;5084751;28;20478;-46
2021/04/07 05:56:49;;;;;;;11.77;4.95;;;1.00;99.90;;;;;;5080300;28;20441;-46
2021/04/07 05:59:15;;;;;;;19.00;4.95;;;1.00;99.90;;;;;;5081125;28;20032;-47
2021/04/07 06:01:40;;;;;;;18.95;5.93;;;1.00;99.90;;;;;;5086326;28;20075;-46
2021/04/07 06:04:06;;;;;;;24.08;6.47;;;1.00;99.90;;;;;;5066214;28;20557;-49
2021/04/07 06:06:32;;;;;;;15.52;5.53;;;1.00;99.90;;;;;;5089254;28;20443;-46
2021/04/07 06:08:57;;;;;;;16.75;5.78;;;1.10;99.90;;;;;;5085856;28;20032;-47
2021/04/07 06:11:23;;;;;;;13.82;5.65;;;1.30;99.90;;;;;;5085114;28;20027;-46
2021/04/07 06:13:49;;;;;;;18.13;7.65;;;1.40;99.90;;;;;;5084677;28;20025;-46
2021/04/07 06:16:15;;;;;;;19.02;6.03;;;1.50;99.90;;;;;;5084234;28;20051;-46
2021/04/07 06:18:41;;;;;;;18.00;6.30;;;1.50;99.90;;;;;;5085991;28;20051;-46
2021/04/07 06:21:07;;;;;;;13.23;6.60;;;1.60;99.90;;;;;;5073242;28;20489;-47
2021/04/07 06:23:34;;;;;;;21.40;6.18;;;1.70;99.90;;;;;;5067075;28;20072;-46
2021/04/07 06:25:59;;;;;;;14.45;5.78;;;1.70;99.90;;;;;;5073785;28;20108;-48
2021/04/07 06:28:25;;;;;;;17.17;5.53;;;1.70;99.90;;;;;;5085090;28;20107;-46
2021/04/07 06:30:50;;;;;;;29.40;5.97;;;1.80;99.90;;;;;;5085981;28;20443;-46
2021/04/07 06:33:16;;;;;;;21.25;5.15;;;1.80;99.90;;;;;;5088142;28;20773;-47
2021/04/07 06:35:48;;;;;;;15.35;5.03;;;1.90;99.90;;;;;;5089044;28;20103;-46
2021/04/07 06:38:15;;;;;;;14.63;5.72;;;1.90;99.90;;;;;;5089423;28;20039;-47
2021/04/07 06:40:42;;;;;;;14.82;4.95;;;2.10;99.90;;;;;;5083889;28;20074;-47
2021/04/07 06:43:08;;;;;;;19.80;5.35;;;2.20;99.90;;;;;;5084774;28;20024;-47
2021/04/07 06:45:34;;;;;;;16.90;5.32;;;2.20;99.90;;;;;;5082934;28;20050;-46
2021/04/07 06:48:01;;;;;;;19.77;4.97;;;2.20;99.90;;;;;;5088935;28;20489;-47
2021/04/07 06:50:27;;;;;;;25.08;5.03;;;2.30;99.90;;;;;;5088640;28;20165;-47
2021/04/07 06:52:57;;;;;;;13.40;4.68;;;2.10;99.90;;;;;;5087799;28;20238;-47
2021/04/07 06:55:23;;;;;;;18.27;5.97;;;2.00;99.90;;;;;;5089081;28;20363;-46
2021/04/07 06:57:49;;;;;;;13.65;4.50;;;2.20;99.90;;;;;;5098631;28;20023;-46
2021/04/07 07:00:15;;;;;;;9.88;4.18;;;2.30;99.90;;;;;;5094482;28;20481;-47
2021/04/07 07:02:41;;;;;;;17.10;4.45;;;2.50;99.90;;;;;;5051060;28;20043;-46
2021/04/07 07:05:07;;;;;;;14.48;4.20;;;2.50;99.90;;;;;;5086808;28;20036;-46
2021/04/07 07:07:33;;;;;;;19.67;4.80;;;2.50;99.90;;;;;;5088400;28;20055;-46
2021/04/07 07:09:58;;;;;;;18.60;4.40;;;2.50;99.90;;;;;;5070224;28;20021;-46
2021/04/07 07:12:25;;;;;;;11.30;3.38;;;2.40;99.90;;;;;;5088096;28;20024;-49
2021/04/07 07:14:51;;;;;;;15.13;3.78;;;2.50;99.90;;;;;;5082632;28;20043;-46
2021/04/07 07:17:29;;;;;;;15.52;5.03;;;2.50;99.90;;;;;;5072739;28;20031;-47
2021/04/07 07:19:57;;;;;;;18.20;4.60;;;2.50;99.90;;;;;;5060811;28;20106;-48
2021/04/07 07:22:26;;;;;;;17.73;3.85;;;2.50;99.90;;;;;;5076822;28;20044;-47
2021/04/07 07:24:58;;;;;;;10.25;3.83;;;2.60;99.90;;;;;;5084933;28;20016;-50
2021/04/07 07:27:41;;;;;;;14.52;3.85;;;2.60;99.90;;;;;;5076133;28;20020;-46
2021/04/07 07:30:10;;;;;;;9.57;3.15;;;2.70;99.90;;;;;;5083678;28;20579;-45
2021/04/07 07:32:37;;;;;;;7.00;3.17;;;2.70;99.90;;;;;;5057083;28;20404;-46
2021/04/07 07:35:21;;;;;;;14.15;3.20;;;2.80;99.90;;;;;;5079581;28;20044;-46
2021/04/07 07:37:46;;;;;;;13.63;3.67;;;2.80;99.90;;;;;;5082781;28;20066;-46
2021/04/07 07:40:15;;;;;;;9.07;4.05;;;2.90;99.90;;;;;;5074034;28;20067;-46
2021/04/07 07:42:41;;;;;;;8.23;2.97;;;2.80;99.90;;;;;;5065290;28;20020;-45
2021/04/07 07:45:07;;;;;;;11.32;3.53;;;2.90;99.90;;;;;;5087414;28;20024;-44
2021/04/07 07:47:39;;;;;;;15.25;4.18;;;2.90;99.90;;;;;;5084507;28;20020;-45
2021/04/07 07:50:07;;;;;;;13.95;3.15;;;2.70;99.90;;;;;;5077439;28;20031;-45
2021/04/07 07:52:35;;;;;;;14.18;3.55;;;2.90;99.90;;;;;;5082682;28;20482;-45
2021/04/07 07:55:12;;;;;;;11.05;3.60;;;2.90;99.90;;;;;;5076783;28;20217;-45
2021/04/07 07:57:38;;;;;;;12.25;3.60;;;3.00;99.90;;;;;;5077657;28;20192;-47
2021/04/07 08:00:08;;;;;;;10.95;3.03;;;3.10;99.90;;;;;;5080587;28;20038;-46
2021/04/07 08:02:35;;;;;;;15.52;3.13;;;3.20;99.90;;;;;;5087699;28;20067;-46
2021/04/07 08:05:01;;;;;;;9.73;3.35;;;3.40;99.90;;;;;;5080355;28;20036;-44
2021/04/07 08:07:26;;;;;;;10.63;2.83;;;3.60;99.90;;;;;;5091356;28;20036;-45
2021/04/07 08:09:52;;;;;;;18.67;2.95;;;3.40;99.90;;;;;;5075633;28;20020;-51
2021/04/07 08:12:19;;;;;;;9.98;2.85;;;3.50;99.90;;;;;;5084601;28;20028;-46
2021/04/07 08:14:47;;;;;;;13.15;3.08;;;3.50;99.90;;;;;;5085840;28;20020;-45
2021/04/07 08:17:15;;;;;;;10.60;4.18;;;3.40;99.90;;;;;;5089667;28;20405;-45
2021/04/07 08:19:41;;;;;;;8.50;2.95;;;3.30;99.90;;;;;;5092829;28;20099;-45
2021/04/07 08:22:11;;;;;;;7.88;2.80;;;3.40;99.90;;;;;;5065909;28;20127;-44
2021/04/07 08:24:39;;;;;;;7.77;3.23;;;3.40;99.90;;;;;;5091434;28;20024;-44
2021/04/07 08:27:07;;;;;;;19.35;4.18;;;3.30;99.90;;;;;;5078817;28;20365;-45
2021/04/07 08:29:32;;;;;;;15.35;3.38;;;3.30;99.90;;;;;;5088709;28;20032;-44
2021/04/07 08:31:58;;;;;;;15.57;3.22;;;3.40;99.90;;;;;;5066239;28;20402;-46
2021/04/07 08:34:25;;;;;;;12.25;3.22;;;3.30;99.90;;;;;;5105245;28;20031;-45
2021/04/07 08:36:50;;;;;;;11.10;3.38;;;3.40;99.90;;;;;;5077126;28;20081;-44
2021/04/07 08:39:18;;;;;;;9.27;3.25;;;3.40;99.90;;;;;;5083596;28;20035;-45
2021/04/07 08:41:47;;;;;;;8.45;3.10;;;3.40;99.90;;;;;;5087386;28;20386;-45
2021/04/07 08:44:13;;;;;;;5.85;2.72;;;3.10;99.90;;;;;;5077484;28;20077;-45
2021/04/07 08:46:40;;;;;;;15.30;4.10;;;3.10;99.90;;;;;;5092928;28;20416;-44
2021/04/07 08:49:06;;;;;;;11.93;3.28;;;3.20;99.90;;;;;;5081402;28;20020;-45
2021/04/07 08:51:35;;;;;;;8.68;3.58;;;3.40;99.90;;;;;;5074113;28;20020;-45
2021/04/07 08:54:02;;;;;;;7.47;2.90;;;3.40;99.90;;;;;;5064656;28;20051;-47
2021/04/07 08:56:30;;;;;;;17.27;3.60;;;3.60;99.90;;;;;;5085881;28;20039;-45
2021/04/07 08:58:59;;;;;;;13.48;3.55;;;3.90;99.90;;;;;;5067177;28;20031;-45
2021/04/07 09:01:35;;;;;;;6.10;2.78;;;3.90;99.90;;;;;;5068780;28;20070;-46
2021/04/07 09:04:04;;;;;;;10.40;3.70;;;4.10;99.90;;;;;;5084696;28;20020;-45
2021/04/07 09:06:29;;;;;;;14.40;4.45;;;4.30;99.90;;;;;;5074021;28;20036;-45
2021/04/07 09:08:55;;;;;;;6.68;3.58;;;4.30;99.90;;;;;;5080346;28;20039;-46
2021/04/07 09:11:29;;;;;;;9.43;3.08;;;4.30;99.90;;;;;;5073355;28;20028;-47
2021/04/07 09:14:00;;;;;;;6.53;2.80;;;4.30;99.90;;;;;;5065901;28;20059;-45
2021/04/07 09:16:40;;;;;;;9.27;2.97;;;4.10;99.90;;;;;;5067416;28;20024;-45
2021/04/07 09:19:21;;;;;;;6.60;2.92;;;4.40;99.90;;;;;;5083884;28;20016;-45
2021/04/07 09:21:57;;;;;;;10.95;3.03;;;4.60;99.90;;;;;;5083433;28;20023;-45
2021/04/07 09:24:27;;;;;;;7.18;2.60;;;4.60;99.90;;;;;;5083158;28;20479;-45
2021/04/07 09:26:54;;;;;;;10.18;3.30;;;4.60;99.90;;;;;;5084874;28;20063;-45
2021/04/07 09:29:20;;;;;;;7.38;3.05;;;4.70;99.90;;;;;;5085830;28;20115;-45
2021/04/07 09:31:48;;;;;;;10.02;3.10;;;5.00;99.90;;;;;;5084657;28;20049;-45
2021/04/07 09:34:14;;;;;;;11.27;3.28;;;5.20;99.90;;;;;;5083778;28;20034;-45
2021/04/07 09:36:42;;;;;;;7.63;3.10;;;5.60;99.90;;;;;;5085323;28;20028;-45
2021/04/07 09:39:10;;;;;;;9.20;3.05;;;5.70;99.90;;;;;;5081736;28;20031;-45
2021/04/07 09:41:40;;;;;;;6.68;3.00;;;6.60;99.90;;;;;;5085433;28;20056;-45
2021/04/07 09:44:07;;;;;;;5.85;2.90;;;6.50;99.90;;;;;;5084779;28;20454;-45
2021/04/07 09:46:33;;;;;;;11.30;3.45;;;7.10;99.90;;;;;;5068639;28;20039;-46
2021/04/07 09:49:03;;;;;;;8.85;2.80;;;6.70;99.90;;;;;;5085347;28;20061;-45
2021/04/07 09:51:40;;;;;;;6.67;3.20;;;6.60;99.90;;;;;;5085057;28;20454;-45
2021/04/07 09:54:08;;;;;;;9.32;3.42;;;6.40;99.90;;;;;;5065513;28;20020;-45
2021/04/07 09:56:53;;;;;;;8.38;3.28;;;6.40;99.90;;;;;;5083312;28;20040;-45
2021/04/07 09:59:33;;;;;;;7.25;3.28;;;5.90;99.90;;;;;;5084896;28;20032;-45
2021/04/07 10:02:00;;;;;;;5.38;2.90;;;5.70;99.90;;;;;;5079029;28;20478;-46
2021/04/07 10:04:37;;;;;;;12.23;3.90;;;5.70;99.90;;;;;;5080128;28;20033;-46
2021/04/07 10:07:10;;;;;;;8.80;3.22;;;5.80;99.90;;;;;;5084237;28;20388;-45
2021/04/07 10:09:37;;;;;;;7.28;3.40;;;5.40;99.90;;;;;;5083551;28;20024;-46
2021/04/07 10:12:03;;;;;;;7.82;3.75;;;5.30;99.90;;;;;;5072595;28;20559;-46
2021/04/07 10:14:29;;;;;;;11.52;3.45;;;5.20;99.90;;;;;;5086833;28;20454;-46
2021/04/07 10:16:55;;;;;;;7.40;3.47;;;5.30;99.90;;;;;;5085188;28;20036;-46
2021/04/07 10:19:30;;;;;;;5.30;3.03;;;5.30;99.90;;;;;;5087092;28;20024;-46
2021/04/07 10:22:00;;;;;;;7.25;3.80;;;5.40;99.90;;;;;;5088177;28;20063;-45
2021/04/07 10:24:26;;;;;;;8.65;3.17;;;5.10;99.90;;;;;;5088047;28;20034;-45
2021/04/07 10:26:52;;;;;;;5.40;3.50;;;5.20;99.90;;;;;;5074370;28;20032;-48
2021/04/07 10:29:25;;;;;;;6.55;3.78;;;5.20;99.90;;;;;;5068515;28;20021;-47
2021/04/07 10:31:55;;;;;;;5.40;3.55;;;5.00;99.90;;;;;;5084260;28;20024;-48
2021/04/07 10:34:34;;;;;;;5.70;3.33;;;5.00;99.90;;;;;;5087746;28;20016;-45
2021/04/07 10:37:02;;;;;;;5.43;3.50;;;4.90;99.90;;;;;;5088528;28;20371;-46
2021/04/07 10:39:38;;;;;;;6.22;3.75;;;4.90;99.90;;;;;;5085678;28;20012;-46
2021/04/07 10:42:04;;;;;;;6.93;4.32;;;5.00;99.90;;;;;;5070525;28;20035;-47
2021/04/07 10:44:32;;;;;;;8.88;4.82;;;5.00;99.90;;;;;;5070385;28;20378;-47
2021/04/07 10:46:58;;;;;;;8.13;4.53;;;5.00;99.90;;;;;;5089932;28;20073;-47
2021/04/07 10:49:25;;;;;;;9.27;5.10;;;5.00;99.90;;;;;;5062507;28;20162;-45
2021/04/07 10:52:07;;;;;;;8.60;4.97;;;5.00;99.90;;;;;;5088368;28;20027;-48
2021/04/07 10:54:33;;;;;;;8.43;5.30;;;5.10;99.90;;;;;;5090584;28;20512;-45
2021/04/07 10:57:01;;;;;;;6.80;4.70;;;5.40;99.90;;;;;;5080653;28;20116;-45
2021/04/07 10:59:29;;;;;;;10.02;5.68;;;5.40;99.90;;;;;;5057518;28;20552;-45
2021/04/07 11:01:54;;;;;;;13.20;7.07;;;5.60;99.90;;;;;;5083572;28;20028;-46
2021/04/07 11:04:20;;;;;;;12.10;6.80;;;5.70;99.90;;;;;;5082701;28;20031;-46
2021/04/07 11:06:50;;;;;;;9.68;6.72;;;5.80;99.90;;;;;;5088450;28;20024;-45
2021/04/07 11:09:15;;;;;;;11.88;7.70;;;5.70;99.90;;;;;;5075304;28;20033;-45
2021/04/07 11:11:42;;;;;;;13.57;8.52;;;5.50;99.90;;;;;;5088552;28;20024;-45
2021/04/07 11:14:09;;;;;;;16.80;7.75;;;5.30;99.90;;;;;;5068236;28;20012;-45
2021/04/07 11:16:35;;;;;;;10.93;8.23;;;5.40;99.90;;;;;;5088324;28;20706;-45
2021/04/07 11:19:16;;;;;;;12.70;8.57;;;5.30;99.90;;;;;;5070871;28;20036;-45
2021/04/07 11:21:45;;;;;;;10.80;8.00;;;5.40;99.90;;;;;;5088204;28;20043;-45
2021/04/07 11:24:10;;;;;;;13.05;8.95;;;5.40;99.90;;;;;;5087968;28;20020;-45
2021/04/07 11:26:36;;;;;;;13.10;8.75;;;5.50;99.90;;;;;;5086885;28;20059;-45
2021/04/07 11:29:01;;;;;;;13.30;9.32;;;5.50;99.90;;;;;;5083334;28;20020;-45
2021/04/07 11:31:32;;;;;;;13.65;9.32;;;5.60;99.90;;;;;;5088728;28;20035;-46
2021/04/07 11:34:01;;;;;;;14.15;9.70;;;5.60;99.90;;;;;;5087754;28;20017;-45
2021/04/07 11:39:15;;;;;;;13.20;9.65;;;5.50;99.90;;;;;;5086817;28;20277;-47
2021/04/07 11:44:28;;;;;;;13.93;9.02;;;5.60;99.90;;;;;;5087428;28;20426;-46
2021/04/07 11:46:55;;;;;;;14.07;10.07;;;5.50;99.90;;;;;;5088763;28;20533;-47
2021/04/07 11:49:21;;;;;;;14.90;10.32;;;5.10;99.90;;;;;;5088292;28;20015;-45
2021/04/07 11:51:46;;;;;;;15.13;10.45;;;5.00;99.90;;;;;;5084529;28;20666;-45
2021/04/07 11:54:14;;;;;;;13.75;9.65;;;4.90;99.90;;;;;;5082762;28;20106;-46
2021/04/07 11:56:47;;;;;;;14.95;10.82;;;4.90;99.90;;;;;;5079994;28;20119;-45
2021/04/07 11:59:15;;;;;;;14.38;10.38;;;5.10;99.90;;;;;;5081307;28;20035;-45
2021/04/07 12:01:42;;;;;;;14.45;10.13;;;5.40;99.90;;;;;;5082851;28;20020;-46
2021/04/07 12:04:08;;;;;;;12.57;10.10;;;5.20;99.90;;;;;;5083321;28;20397;-46
2021/04/07 12:06:34;;;;;;;14.77;10.68;;;5.40;99.90;;;;;;5087386;28;20343;-45
2021/04/07 12:08:59;;;;;;;14.90;10.60;;;5.40;99.90;;;;;;5080875;28;20275;-52
2021/04/07 12:11:25;;;;;;;15.00;9.75;;;5.50;99.90;;;;;;5086606;28;20027;-45
2021/04/07 12:13:52;;;;;;;14.95;9.70;;;5.60;99.90;;;;;;5087197;28;20020;-46
2021/04/07 12:16:17;;;;;;;15.73;10.70;;;5.80;99.90;;;;;;5085747;28;20058;-46
2021/04/07 12:18:43;;;;;;;14.27;9.95;;;5.80;99.90;;;;;;5088212;28;20067;-46
2021/04/07 12:21:11;;;;;;;14.45;9.70;;;5.90;99.90;;;;;;5088064;28;20024;-45
2021/04/07 12:23:36;;;;;;;13.52;9.57;;;6.00;99.90;;;;;;5079766;28;20115;-48
2021/04/07 12:26:02;;;;;;;12.85;9.18;;;6.10;99.90;;;;;;5068902;28;20162;-45
2021/04/07 12:28:28;;;;;;;13.82;9.00;;;6.10;99.90;;;;;;5067485;28;20032;-45
2021/04/07 12:30:53;;;;;;;13.52;8.88;;;6.20;99.90;;;;;;5087500;28;20428;-46
2021/04/07 12:33:22;;;;;;;13.55;8.63;;;6.40;99.90;;;;;;5080703;28;20024;-45
2021/04/07 12:35:49;;;;;;;13.68;9.52;;;6.20;99.90;;;;;;5080288;28;20028;-45
2021/04/07 12:38:15;;;;;;;12.35;9.13;;;6.30;99.90;;;;;;5079105;28;20391;-46
2021/04/07 12:40:44;;;;;;;12.05;9.30;;;6.40;99.90;;;;;;5086845;28;20031;-46
2021/04/07 12:43:09;;;;;;;13.55;9.63;;;6.40;99.90;;;;;;5086292;28;20078;-47
2021/04/07 12:45:35;;;;;;;15.35;10.68;;;6.60;99.90;;;;;;5085824;28;20067;-48
2021/04/07 12:48:00;;;;;;;12.98;9.63;;;6.70;99.90;;;;;;5087260;28;20050;-47
2021/04/07 12:50:26;;;;;;;10.57;8.93;;;7.30;99.90;;;;;;5086928;28;20035;-47
2021/04/07 12:52:51;;;;;;;12.70;9.18;;;7.40;99.90;;;;;;5086611;28;20035;-47